createdAt,value
2023-03-29T00:01:35.105Z,51.63
2023-03-29T00:04:05.090Z,51.63
2023-03-29T00:06:36.071Z,51.78
2023-03-29T00:09:10.049Z,51.99
2023-03-29T00:11:45.778Z,51.87
2023-03-29T00:14:17.004Z,52.17
2023-03-29T00:16:47.125Z,52.16
2023-03-29T00:19:15.744Z,52.22
2023-03-29T00:21:46.691Z,52.52
2023-03-29T00:24:14.842Z,52.55
2023-03-29T00:26:43.226Z,52.69
2023-03-29T00:29:16.458Z,52.64
2023-03-29T00:31:53.908Z,52.98
2023-03-29T00:34:28.474Z,53.27
2023-03-29T00:36:59.462Z,53.69
2023-03-29T00:39:28.066Z,54.02
2023-03-29T00:42:02.767Z,53.96
2023-03-29T00:45:08.330Z,53.78
2023-03-29T00:47:57.117Z,53.82
2023-03-29T00:50:41.912Z,53.64
2023-03-29T00:53:19.239Z,53.89
2023-03-29T00:56:11.216Z,54.29
2023-03-29T00:58:52.371Z,54.17
2023-03-29T01:01:28.759Z,54.06
2023-03-29T01:04:33.975Z,53.78
2023-03-29T01:07:03.901Z,53.60
2023-03-29T01:09:34.776Z,53.63
2023-03-29T01:12:17.253Z,53.68
2023-03-29T01:15:04.257Z,53.55
2023-03-29T01:17:35.346Z,53.63
2023-03-29T01:20:42.323Z,53.60
2023-03-29T01:23:22.246Z,53.52
2023-03-29T01:26:03.169Z,53.70
2023-03-29T01:29:06.892Z,54.02
2023-03-29T01:31:42.495Z,54.31
2023-03-29T01:34:22.962Z,54.10
2023-03-29T01:37:00.411Z,53.91
2023-03-29T01:39:28.634Z,54.36
2023-03-29T01:42:02.852Z,54.62
2023-03-29T01:44:38.154Z,54.79
2023-03-29T01:47:23.602Z,54.69
2023-03-29T01:49:59.653Z,54.42
2023-03-29T01:52:38.556Z,55.04
2023-03-29T01:55:20.279Z,55.07
2023-03-29T01:57:52.219Z,54.95
2023-03-29T02:00:25.874Z,54.43
2023-03-29T02:03:01.460Z,54.74
2023-03-29T02:05:33.742Z,54.80
2023-03-29T02:08:05.558Z,54.83
2023-03-29T02:10:34.527Z,54.57
2023-03-29T02:13:05.692Z,55.00
2023-03-29T02:15:35.027Z,55.27
2023-03-29T02:18:08.696Z,55.45
2023-03-29T02:20:40.690Z,55.82
2023-03-29T02:23:14.583Z,55.62
2023-03-29T02:25:46.704Z,55.62
2023-03-29T02:28:14.929Z,55.79
2023-03-29T02:31:01.277Z,55.62
2023-03-29T02:33:53.637Z,55.83
2023-03-29T02:36:27.106Z,56.13
2023-03-29T02:39:05.870Z,56.43
2023-03-29T02:41:38.467Z,56.50
2023-03-29T02:44:12.252Z,56.65
2023-03-29T02:46:52.106Z,56.83
2023-03-29T02:49:20.512Z,56.79
2023-03-29T02:51:56.854Z,56.78
2023-03-29T02:54:31.615Z,56.65
2023-03-29T02:57:07.752Z,56.99
2023-03-29T02:59:38.526Z,56.83
2023-03-29T03:02:07.334Z,57.04
2023-03-29T03:04:36.235Z,56.91
2023-03-29T03:07:09.864Z,57.04
2023-03-29T03:09:38.074Z,57.27
2023-03-29T03:12:07.677Z,57.22
2023-03-29T03:14:36.521Z,57.21
2023-03-29T03:17:05.046Z,57.42
2023-03-29T03:19:46.166Z,57.36
2023-03-29T03:22:16.743Z,57.46
2023-03-29T03:24:46.189Z,57.33
2023-03-29T03:27:20.098Z,57.44
2023-03-29T03:29:48.739Z,57.33
2023-03-29T03:32:46.627Z,57.10
2023-03-29T03:35:33.855Z,57.21
2023-03-29T03:38:15.064Z,57.61
2023-03-29T03:40:44.218Z,57.75
2023-03-29T03:43:12.822Z,57.81
2023-03-29T03:45:52.565Z,57.39
2023-03-29T03:48:29.042Z,57.47
2023-03-29T03:51:07.570Z,57.37
2023-03-29T03:53:37.130Z,57.16
2023-03-29T03:56:39.968Z,57.24
2023-03-29T03:59:16.231Z,57.44
2023-03-29T04:02:05.416Z,57.29
2023-03-29T04:04:47.901Z,57.15
2023-03-29T04:07:19.565Z,57.07
2023-03-29T04:10:03.356Z,57.01
2023-03-29T04:12:53.634Z,56.83
2023-03-29T04:15:26.670Z,56.84
2023-03-29T04:18:01.085Z,57.15
2023-03-29T04:20:37.198Z,57.32
2023-03-29T04:23:05.771Z,57.22
2023-03-29T04:25:40.960Z,57.35
2023-03-29T04:28:34.486Z,57.16
2023-03-29T04:31:26.140Z,57.33
2023-03-29T04:34:17.025Z,57.58
2023-03-29T04:36:53.142Z,57.76
2023-03-29T04:39:34.100Z,57.96
2023-03-29T04:42:12.536Z,57.92
2023-03-29T04:44:42.713Z,58.09
2023-03-29T04:47:14.814Z,58.20
2023-03-29T04:49:53.615Z,58.23
2023-03-29T04:52:33.581Z,58.45
2023-03-29T04:55:03.941Z,58.47
2023-03-29T04:57:53.726Z,58.02
2023-03-29T05:00:29.055Z,58.02
2023-03-29T05:03:04.418Z,58.12
2023-03-29T05:05:34.658Z,58.13
2023-03-29T05:08:03.739Z,58.22
2023-03-29T05:10:43.455Z,58.28
2023-03-29T05:13:15.028Z,58.30
2023-03-29T05:15:43.541Z,58.06
2023-03-29T05:18:14.502Z,58.03
2023-03-29T05:20:53.148Z,58.04
2023-03-29T05:23:22.019Z,57.96
2023-03-29T05:26:10.038Z,58.02
2023-03-29T05:28:39.491Z,57.91
2023-03-29T05:31:08.721Z,57.82
2023-03-29T05:33:39.602Z,57.88
2023-03-29T05:36:13.843Z,57.90
2023-03-29T05:38:50.044Z,57.71
2023-03-29T05:41:19.412Z,57.52
2023-03-29T05:43:59.357Z,57.38
2023-03-29T05:46:27.910Z,57.38
2023-03-29T05:49:03.138Z,57.30
2023-03-29T05:51:45.911Z,57.14
2023-03-29T05:54:16.950Z,56.57
2023-03-29T05:56:44.983Z,56.77
2023-03-29T05:59:13.883Z,56.25
2023-03-29T06:01:42.787Z,56.18
2023-03-29T06:04:12.644Z,55.87
2023-03-29T06:06:46.626Z,56.18
2023-03-29T06:09:23.985Z,55.78
2023-03-29T06:12:01.892Z,55.66
2023-03-29T06:14:48.246Z,55.35
2023-03-29T06:17:36.523Z,55.30
2023-03-29T06:20:11.625Z,55.09
2023-03-29T06:22:41.980Z,54.84
2023-03-29T06:25:12.473Z,55.24
2023-03-29T06:27:41.369Z,55.10
2023-03-29T06:30:15.480Z,55.15
2023-03-29T06:32:57.982Z,54.51
2023-03-29T06:35:52.716Z,54.64
2023-03-29T06:38:31.349Z,53.89
2023-03-29T06:41:18.149Z,53.81
2023-03-29T06:43:57.831Z,53.88
2023-03-29T06:46:32.931Z,54.07
2023-03-29T06:49:28.552Z,53.76
2023-03-29T06:52:15.819Z,53.43
2023-03-29T06:54:46.769Z,53.39
2023-03-29T06:57:15.157Z,53.07
2023-03-29T06:59:43.456Z,52.79
2023-03-29T07:02:18.417Z,53.02
2023-03-29T07:04:49.469Z,52.93
2023-03-29T07:07:44.071Z,52.77
2023-03-29T07:10:26.456Z,52.71
2023-03-29T07:13:13.445Z,52.26
2023-03-29T07:15:42.378Z,52.39
2023-03-29T07:18:28.552Z,52.40
2023-03-29T07:20:57.359Z,52.48
2023-03-29T07:23:25.442Z,52.30
2023-03-29T07:25:54.184Z,52.10
2023-03-29T07:28:22.763Z,51.74
2023-03-29T07:30:53.101Z,51.52
2023-03-29T07:33:22.469Z,51.69
2023-03-29T07:35:56.203Z,51.45
2023-03-29T07:38:25.238Z,51.16
2023-03-29T07:41:04.275Z,50.90
2023-03-29T07:43:46.780Z,50.62
2023-03-29T07:46:17.250Z,50.35
2023-03-29T07:48:45.294Z,50.28
2023-03-29T07:51:16.291Z,49.98
2023-03-29T07:53:49.908Z,50.34
2023-03-29T07:56:38.575Z,49.33
2023-03-29T07:59:19.100Z,48.98
2023-03-29T13:02:39.463Z,28.03
2023-03-29T13:05:29.234Z,27.82
2023-03-29T13:07:57.239Z,28.26
2023-03-29T13:10:38.303Z,27.78
2023-03-29T13:13:27.976Z,27.10
2023-03-29T13:15:56.908Z,27.16
2023-03-29T13:19:02.656Z,27.43
2023-03-29T13:21:52.490Z,27.84
2023-03-29T13:24:33.596Z,27.30
2023-03-29T13:27:21.598Z,26.75
2023-03-29T13:30:00.881Z,25.85
2023-03-29T13:32:47.381Z,25.64
2023-03-29T13:35:27.799Z,26.28
2023-03-29T13:38:18.028Z,25.75
2023-03-29T13:41:08.325Z,26.10
2023-03-29T13:43:56.839Z,26.59
2023-03-29T13:46:41.101Z,25.98
2023-03-29T13:49:17.324Z,25.53
2023-03-29T13:52:17.826Z,25.47
2023-03-29T13:55:25.211Z,25.40
2023-03-29T13:58:17.629Z,25.36
2023-03-29T14:00:56.064Z,24.89
2023-03-29T14:03:29.928Z,24.86
2023-03-29T14:06:00.833Z,24.91
2023-03-29T14:08:39.913Z,25.29
2023-03-29T14:11:18.907Z,25.29
2023-03-29T14:13:47.490Z,25.46
2023-03-29T14:16:16.006Z,25.46
2023-03-29T14:18:46.403Z,25.54
2023-03-29T14:21:15.042Z,25.88
2023-03-29T14:23:45.426Z,26.28
2023-03-29T14:26:19.055Z,26.48
2023-03-29T14:28:56.699Z,26.38
2023-03-29T14:31:26.902Z,26.53
2023-03-29T14:33:56.681Z,26.39
2023-03-29T14:36:26.442Z,25.99
2023-03-29T14:38:59.653Z,26.13
2023-03-29T14:41:31.730Z,26.21
2023-03-29T14:43:59.494Z,26.05
2023-03-29T14:46:27.578Z,25.45
2023-03-29T14:48:56.640Z,25.21
2023-03-29T14:51:30.535Z,25.32
2023-03-29T14:54:01.057Z,25.00
2023-03-29T14:56:29.461Z,24.65
2023-03-29T14:58:57.609Z,23.76
2023-03-29T15:01:26.965Z,22.61
2023-03-29T15:04:02.510Z,21.99
2023-03-29T15:06:30.918Z,22.27
2023-03-29T15:09:06.503Z,22.33
2023-03-29T15:11:35.858Z,21.96
2023-03-29T15:14:09.498Z,22.14
2023-03-29T15:16:41.278Z,23.60
2023-03-29T15:19:27.514Z,25.48
2023-03-29T15:21:55.640Z,27.06
2023-03-29T15:24:32.138Z,28.67
2023-03-29T15:27:11.176Z,29.47
2023-03-29T15:29:42.390Z,31.18
2023-03-29T15:32:20.575Z,31.93
2023-03-29T15:34:59.239Z,32.82
2023-03-29T15:37:27.905Z,34.14
2023-03-29T15:39:56.469Z,34.85
2023-03-29T15:42:25.865Z,36.36
2023-03-29T15:44:56.196Z,36.97
2023-03-29T15:47:24.475Z,37.46
2023-03-29T15:49:53.050Z,38.27
2023-03-29T15:52:21.581Z,38.81
2023-03-29T15:54:49.512Z,39.51
2023-03-29T15:57:17.890Z,39.94
2023-03-29T15:59:46.284Z,40.51
2023-03-29T16:02:20.317Z,41.26
2023-03-29T16:04:48.458Z,41.85
2023-03-29T16:07:18.125Z,41.71
2023-03-29T16:09:46.312Z,42.03
2023-03-29T16:12:16.300Z,42.16
2023-03-29T16:14:44.252Z,42.73
2023-03-29T16:17:12.414Z,42.94
2023-03-29T16:19:40.490Z,43.37
2023-03-29T16:22:08.468Z,43.30
2023-03-29T16:24:36.630Z,43.92
2023-03-29T16:27:04.822Z,44.21
2023-03-29T16:29:32.990Z,44.16
2023-03-29T16:32:01.278Z,44.41
2023-03-29T16:34:30.135Z,44.62
2023-03-29T16:36:58.197Z,44.73
2023-03-29T16:39:26.185Z,44.77
2023-03-29T16:41:54.537Z,45.72
2023-03-29T16:44:24.365Z,45.80
2023-03-29T16:46:54.471Z,45.35
2023-03-29T16:49:24.261Z,45.62
2023-03-29T16:51:52.161Z,45.71
2023-03-29T16:54:20.225Z,45.73
2023-03-29T16:56:48.250Z,46.22
2023-03-29T16:59:19.087Z,46.29
2023-03-29T17:01:47.728Z,46.47
2023-03-29T17:04:16.084Z,46.64
2023-03-29T17:06:44.130Z,47.05
2023-03-29T17:09:12.245Z,47.56
2023-03-29T17:11:41.427Z,47.29
2023-03-29T17:14:12.353Z,47.79
2023-03-29T17:16:40.622Z,47.96
2023-03-29T17:19:08.628Z,48.22
2023-03-29T17:21:38.774Z,47.99
2023-03-29T17:24:07.321Z,48.14
2023-03-29T17:26:38.575Z,48.33
2023-03-29T17:29:06.536Z,48.75
2023-03-29T17:31:36.290Z,48.53
2023-03-29T17:34:04.476Z,49.04
2023-03-29T17:36:33.818Z,48.84
2023-03-29T17:39:02.885Z,48.50
2023-03-29T17:41:31.474Z,48.52
2023-03-29T17:43:59.887Z,48.84
2023-03-29T17:46:28.736Z,48.97
2023-03-29T17:48:59.304Z,49.11
2023-03-29T17:51:28.172Z,49.39
2023-03-29T17:53:57.658Z,49.47
2023-03-29T17:56:27.063Z,49.79
2023-03-29T17:58:56.376Z,50.50
2023-03-29T18:01:27.574Z,50.08
2023-03-29T18:03:59.605Z,50.11
2023-03-29T18:06:32.255Z,50.50
2023-03-29T18:09:01.984Z,50.55
2023-03-29T18:11:32.598Z,51.11
2023-03-29T18:14:01.609Z,51.11
2023-03-29T18:16:31.263Z,51.17
2023-03-29T18:19:03.164Z,51.51
2023-03-29T18:21:32.188Z,51.42
2023-03-29T18:24:01.521Z,51.60
2023-03-29T18:26:30.540Z,51.97
2023-03-29T18:28:59.063Z,51.97
2023-03-29T18:31:28.210Z,52.27
2023-03-29T18:33:56.333Z,52.82
2023-03-29T18:36:25.750Z,52.54
2023-03-29T18:38:55.773Z,52.60
2023-03-29T18:41:23.948Z,52.50
2023-03-29T18:43:52.151Z,52.45
2023-03-29T18:46:20.521Z,52.42
2023-03-29T18:48:48.576Z,52.48
2023-03-29T18:51:16.930Z,52.44
2023-03-29T18:53:45.573Z,52.17
2023-03-29T18:56:13.752Z,52.13
2023-03-29T18:58:41.860Z,52.46
2023-03-29T19:01:10.950Z,52.53
2023-03-29T19:03:38.875Z,52.32
2023-03-29T19:06:09.822Z,52.27
2023-03-29T19:08:40.577Z,52.40
2023-03-29T19:11:11.491Z,52.58
2023-03-29T19:13:40.506Z,52.74
2023-03-29T19:16:09.430Z,52.69
2023-03-29T19:18:37.991Z,52.88
2023-03-29T19:21:06.552Z,53.08
2023-03-29T19:23:37.565Z,53.59
2023-03-29T19:26:06.269Z,53.42
2023-03-29T19:28:34.620Z,53.81
2023-03-29T19:31:03.387Z,53.56
2023-03-29T19:33:31.780Z,53.70
2023-03-29T19:35:59.683Z,53.80
2023-03-29T19:38:30.235Z,54.07
2023-03-29T19:40:58.026Z,53.91
2023-03-29T19:43:26.492Z,54.40
2023-03-29T19:45:54.598Z,54.24
2023-03-29T19:48:24.348Z,54.54
2023-03-29T19:50:52.909Z,54.29
2023-03-29T19:53:21.257Z,54.73
2023-03-29T19:55:52.498Z,55.04
2023-03-29T19:58:20.718Z,54.94
2023-03-29T20:00:50.885Z,55.23
2023-03-29T20:03:21.775Z,55.20
2023-03-29T20:05:49.685Z,55.58
2023-03-29T20:08:17.744Z,55.78
2023-03-29T20:10:45.583Z,55.75
2023-03-29T20:13:14.579Z,55.37
2023-03-29T20:15:47.052Z,55.64
2023-03-29T20:18:14.957Z,55.63
2023-03-29T20:20:44.686Z,55.73
2023-03-29T20:23:12.934Z,56.08
2023-03-29T20:25:41.023Z,55.94
2023-03-29T20:28:12.873Z,56.57
2023-03-29T20:30:41.447Z,56.45
2023-03-29T20:33:09.366Z,56.46
2023-03-29T20:35:37.384Z,56.67
2023-03-29T20:38:14.778Z,56.66
2023-03-29T20:40:42.861Z,56.52
2023-03-29T20:43:13.421Z,56.69
2023-03-29T20:45:52.616Z,56.67
2023-03-29T20:48:24.256Z,56.95
2023-03-29T20:50:52.318Z,57.12
2023-03-29T20:53:23.012Z,57.17
2023-03-29T20:56:00.187Z,57.38
2023-03-29T20:58:29.100Z,57.36
2023-03-29T21:00:59.820Z,57.33
2023-03-29T21:03:27.767Z,57.24
2023-03-29T21:05:55.738Z,57.07
2023-03-29T21:08:29.873Z,57.58
2023-03-29T21:10:57.876Z,57.48
2023-03-29T21:13:25.889Z,57.66
2023-03-29T21:15:53.795Z,57.71
2023-03-29T21:18:23.499Z,57.74
2023-03-29T21:20:54.772Z,57.93
2023-03-29T21:23:22.826Z,57.95
2023-03-29T21:25:51.201Z,57.97
2023-03-29T21:28:21.958Z,57.97
2023-03-29T21:30:50.097Z,57.67
2023-03-29T21:33:18.014Z,58.08
2023-03-29T21:35:49.135Z,58.36
2023-03-29T21:38:17.369Z,58.29
2023-03-29T21:40:45.451Z,58.43
2023-03-29T21:43:13.340Z,58.66
2023-03-29T21:45:41.428Z,58.54
2023-03-29T21:48:09.511Z,58.50
2023-03-29T21:50:37.518Z,58.50
2023-03-29T21:53:05.325Z,58.80
2023-03-29T21:55:36.220Z,58.72
2023-03-29T21:58:04.938Z,58.75
2023-03-29T22:00:33.140Z,58.36
2023-03-29T22:03:01.137Z,58.62
2023-03-29T22:05:29.128Z,58.44
2023-03-29T22:07:58.850Z,58.33
2023-03-29T22:10:27.434Z,58.57
2023-03-29T22:12:57.138Z,58.80
2023-03-29T22:15:24.985Z,58.89
2023-03-29T22:17:53.444Z,59.01
2023-03-29T22:20:22.433Z,59.18
2023-03-29T22:22:51.109Z,59.01
2023-03-29T22:25:19.791Z,59.25
2023-03-29T22:27:48.813Z,59.38
2023-03-29T22:30:17.354Z,59.33
2023-03-29T22:32:45.523Z,59.45
2023-03-29T22:35:13.613Z,59.57
2023-03-29T22:37:45.670Z,59.31
2023-03-29T22:40:14.060Z,59.65
2023-03-29T22:42:41.923Z,59.83
2023-03-29T22:45:10.520Z,59.73
2023-03-29T22:47:38.458Z,59.73
2023-03-29T22:50:07.414Z,59.69
2023-03-29T22:52:35.461Z,59.81
2023-03-29T22:55:06.553Z,59.85
2023-03-29T22:57:34.669Z,59.99
2023-03-29T23:00:09.493Z,59.83
2023-03-29T23:02:37.805Z,59.93
2023-03-29T23:05:06.421Z,59.84
2023-03-29T23:07:36.518Z,59.77
2023-03-29T23:10:06.461Z,59.84
2023-03-29T23:12:36.266Z,59.76
2023-03-29T23:15:08.087Z,59.94
2023-03-29T23:17:37.370Z,60.04
2023-03-29T23:20:06.119Z,60.03
2023-03-29T23:22:36.245Z,60.13
2023-03-29T23:25:04.552Z,60.14
2023-03-29T23:27:33.158Z,60.19
2023-03-29T23:30:01.734Z,60.12
2023-03-29T23:32:29.900Z,60.16
2023-03-29T23:34:58.048Z,60.12
2023-03-29T23:37:26.157Z,60.17
2023-03-29T23:39:54.167Z,60.22
2023-03-29T23:42:22.597Z,60.22
2023-03-29T23:44:51.223Z,60.15
2023-03-29T23:47:19.493Z,60.07
2023-03-29T23:49:47.784Z,60.09
2023-03-29T23:52:15.603Z,60.05
2023-03-29T23:54:43.416Z,60.08
2023-03-29T23:57:11.404Z,60.03
2023-03-29T23:59:40.110Z,60.05
